Time;durP1;ratioP1;P1;durP2;ratioP2;P2;SDS_P1;SDS_P2;PMS_P1;PMS_P2;Temp;Humidity;BMP_temperature;BMP_pressure;BME280_temperature;BME280_humidity;BME280_pressure;Samples;Min_cycle;Max_cycle;Signal;HPM_P1;HPM_P2
2023/04/07 00:01:03;;;;;;;9.47;8.50;;;10.00;99.90;;;;;;5031315;28;20187;-73
2023/04/07 00:03:29;;;;;;;10.27;9.23;;;9.90;99.90;;;;;;5013854;28;20212;-72
2023/04/07 00:05:55;;;;;;;10.13;8.90;;;9.90;99.90;;;;;;5042427;28;20184;-72
2023/04/07 00:08:20;;;;;;;10.43;9.27;;;9.90;99.90;;;;;;5041253;28;20463;-70
2023/04/07 00:10:46;;;;;;;9.63;8.63;;;9.80;99.90;;;;;;5037931;28;20564;-71
2023/04/07 00:13:12;;;;;;;10.77;9.70;;;9.80;99.90;;;;;;5019786;28;20213;-70
2023/04/07 00:15:37;;;;;;;9.33;8.43;;;9.80;99.90;;;;;;5042310;28;20601;-71
2023/04/07 00:18:03;;;;;;;10.40;9.30;;;9.70;99.90;;;;;;5041639;28;20376;-71
2023/04/07 00:20:28;;;;;;;9.40;8.43;;;9.80;99.90;;;;;;5028458;28;20279;-72
2023/04/07 00:22:54;;;;;;;9.43;8.43;;;9.80;99.90;;;;;;5014060;28;20207;-71
2023/04/07 00:25:20;;;;;;;9.93;8.43;;;9.80;99.90;;;;;;5009301;28;20207;-71
2023/04/07 00:27:45;;;;;;;10.87;9.40;;;9.80;99.90;;;;;;5017002;28;20650;-72
2023/04/07 00:30:11;;;;;;;8.63;7.83;;;9.80;99.90;;;;;;5042159;28;20282;-71
2023/04/07 00:32:37;;;;;;;8.27;7.07;;;9.90;99.90;;;;;;5034323;28;20189;-71
2023/04/07 00:35:02;;;;;;;8.73;7.83;;;9.90;99.90;;;;;;5011074;28;20746;-69
2023/04/07 00:37:28;;;;;;;10.43;9.37;;;9.80;99.90;;;;;;5036545;28;20213;-71
2023/04/07 00:39:55;;;;;;;9.50;8.50;;;9.70;99.90;;;;;;5013276;28;20196;-69
2023/04/07 00:42:20;;;;;;;9.77;8.43;;;9.60;99.90;;;;;;5019557;28;20285;-72
2023/04/07 00:44:46;;;;;;;11.80;8.40;;;9.40;99.90;;;;;;5041556;28;20500;-69
2023/04/07 00:47:11;;;;;;;7.87;7.10;;;9.30;99.90;;;;;;5026275;28;20186;-72
2023/04/07 00:49:37;;;;;;;9.90;7.80;;;9.30;99.90;;;;;;5009828;28;20183;-70
2023/04/07 00:52:05;;;;;;;9.83;7.50;;;9.20;99.90;;;;;;5011616;28;20273;-70
2023/04/07 00:54:31;;;;;;;11.53;8.27;;;9.50;99.90;;;;;;5037439;28;20185;-71
2023/04/07 00:56:57;;;;;;;9.90;7.30;;;9.50;99.90;;;;;;5041399;28;20436;-70
2023/04/07 00:59:23;;;;;;;10.10;8.93;;;9.30;99.90;;;;;;5019079;28;20484;-72
2023/04/07 01:02:04;;;;;;;11.20;9.50;;;9.40;99.90;;;;;;5008713;28;20214;-71
2023/04/07 01:04:36;;;;;;;8.90;7.70;;;9.40;99.90;;;;;;5025128;28;20455;-71
2023/04/07 01:07:14;;;;;;;8.60;7.70;;;9.50;99.90;;;;;;5036111;28;20785;-70
2023/04/07 01:09:47;;;;;;;9.97;8.20;;;9.50;99.90;;;;;;5026508;28;20435;-71
2023/04/07 01:12:21;;;;;;;8.97;7.73;;;9.50;99.90;;;;;;5017684;28;20413;-72
2023/04/07 01:14:52;;;;;;;9.70;8.80;;;9.50;99.90;;;;;;5038809;28;20410;-71
2023/04/07 01:17:21;;;;;;;10.07;9.10;;;9.50;99.90;;;;;;5024305;28;20407;-72
2023/04/07 01:19:58;;;;;;;8.87;7.40;;;9.50;99.90;;;;;;5034741;28;20422;-71
2023/04/07 01:22:28;;;;;;;9.50;8.43;;;9.60;99.90;;;;;;5024619;28;20422;-72
2023/04/07 01:25:08;;;;;;;9.70;8.70;;;9.60;99.90;;;;;;5034420;28;20418;-72
2023/04/07 01:28:09;;;;;;;9.30;8.30;;;9.60;99.90;;;;;;5038524;28;20444;-71
2023/04/07 01:30:38;;;;;;;9.90;8.90;;;9.50;99.90;;;;;;5029914;28;20960;-71
2023/04/07 01:33:05;;;;;;;9.67;8.57;;;9.60;99.90;;;;;;5030268;28;20419;-71
2023/04/07 01:35:33;;;;;;;10.93;9.57;;;9.30;99.90;;;;;;5009723;28;20430;-71
2023/04/07 01:38:00;;;;;;;8.90;8.00;;;9.40;99.90;;;;;;5040108;28;20475;-69
2023/04/07 01:40:27;;;;;;;10.70;8.90;;;9.40;99.90;;;;;;5029630;28;20524;-72
2023/04/07 01:42:56;;;;;;;11.60;9.13;;;9.30;99.90;;;;;;5038691;28;20554;-69
2023/04/07 01:45:22;;;;;;;10.60;9.60;;;9.40;99.90;;;;;;5024926;28;20459;-70
2023/04/07 01:47:49;;;;;;;9.43;8.53;;;9.50;99.90;;;;;;5023646;28;20617;-71
2023/04/07 01:50:15;;;;;;;10.70;9.57;;;9.50;99.90;;;;;;5039869;28;20424;-68
2023/04/07 01:52:41;;;;;;;9.87;8.83;;;9.50;99.90;;;;;;5039828;28;20439;-71
2023/04/07 01:55:08;;;;;;;10.10;9.10;;;9.50;99.90;;;;;;5024629;28;20471;-72
2023/04/07 01:57:34;;;;;;;10.80;9.47;;;9.40;99.90;;;;;;5023861;28;20525;-71
2023/04/07 02:00:00;;;;;;;9.57;8.63;;;9.40;99.90;;;;;;5007342;28;20535;-72
2023/04/07 02:02:26;;;;;;;10.13;9.13;;;9.50;99.90;;;;;;5028889;28;20773;-72
2023/04/07 02:04:56;;;;;;;8.93;8.00;;;9.40;99.90;;;;;;5034094;28;20183;-71
2023/04/07 02:07:50;;;;;;;9.93;8.23;;;9.50;99.90;;;;;;5025887;28;20508;-72
2023/04/07 02:10:21;;;;;;;11.10;9.77;;;9.50;99.90;;;;;;5020230;28;20814;-71
2023/04/07 02:12:48;;;;;;;9.17;8.20;;;9.50;99.90;;;;;;5023166;28;20417;-71
2023/04/07 02:15:15;;;;;;;10.07;9.00;;;9.50;99.90;;;;;;5026628;28;20432;-69
2023/04/07 02:17:43;;;;;;;11.60;9.90;;;9.30;99.90;;;;;;5006958;28;20478;-72
2023/04/07 02:20:11;;;;;;;10.13;9.13;;;9.30;99.90;;;;;;5023101;28;20415;-73
2023/04/07 02:22:43;;;;;;;9.63;8.63;;;9.40;99.90;;;;;;5025985;28;20838;-71
2023/04/07 02:25:29;;;;;;;9.93;8.53;;;9.30;99.90;;;;;;5029962;28;20425;-73
2023/04/07 02:27:56;;;;;;;10.03;9.03;;;9.20;99.90;;;;;;5028201;28;21153;-71
2023/04/07 02:30:22;;;;;;;10.60;9.50;;;9.20;99.90;;;;;;5039874;28;20421;-71
2023/04/07 02:32:48;;;;;;;9.17;8.27;;;9.30;99.90;;;;;;5036714;28;20524;-71
2023/04/07 02:35:15;;;;;;;11.40;9.90;;;9.50;99.90;;;;;;5022847;28;20482;-69
2023/04/07 02:37:41;;;;;;;10.80;9.70;;;9.50;99.90;;;;;;5039567;28;20222;-72
2023/04/07 02:40:07;;;;;;;14.40;11.20;;;9.60;99.90;;;;;;5039629;28;20986;-71
2023/04/07 02:42:33;;;;;;;12.77;10.53;;;9.50;99.90;;;;;;5032598;28;20462;-71
2023/04/07 02:44:59;;;;;;;11.00;9.80;;;9.60;99.90;;;;;;5006433;28;20476;-72
2023/04/07 02:47:25;;;;;;;10.67;9.17;;;9.70;99.90;;;;;;5009627;28;20268;-70
2023/04/07 02:49:50;;;;;;;9.73;8.53;;;9.80;99.90;;;;;;5039334;28;20492;-72
2023/04/07 02:52:16;;;;;;;12.87;9.70;;;9.90;99.90;;;;;;5027066;28;20194;-71
2023/04/07 02:54:42;;;;;;;11.73;9.40;;;9.80;99.90;;;;;;5006504;28;20190;-71
2023/04/07 02:57:08;;;;;;;10.50;9.40;;;9.70;99.90;;;;;;5006127;28;20645;-70
2023/04/07 02:59:33;;;;;;;12.47;9.20;;;9.80;99.90;;;;;;5013507;28;20414;-72
2023/04/07 03:01:59;;;;;;;11.57;9.93;;;9.80;99.90;;;;;;5023841;28;20179;-71
2023/04/07 03:04:25;;;;;;;11.40;9.63;;;9.80;99.90;;;;;;5020785;28;20232;-72
2023/04/07 03:06:50;;;;;;;10.33;9.40;;;9.80;99.90;;;;;;5038211;28;20692;-71
2023/04/07 03:09:16;;;;;;;11.03;9.20;;;9.80;99.90;;;;;;5039035;28;20204;-72
2023/04/07 03:11:42;;;;;;;11.20;9.80;;;9.80;99.90;;;;;;5037260;28;21337;-72
2023/04/07 03:14:07;;;;;;;10.10;9.07;;;9.90;99.90;;;;;;5036110;28;20514;-71
2023/04/07 03:16:33;;;;;;;11.77;10.67;;;9.90;99.90;;;;;;5033523;28;20268;-75
2023/04/07 03:18:59;;;;;;;10.70;8.70;;;9.90;99.90;;;;;;5022400;28;20683;-70
2023/04/07 03:21:24;;;;;;;12.03;10.83;;;9.90;99.90;;;;;;5019167;28;20202;-71
2023/04/07 03:23:50;;;;;;;11.77;9.57;;;9.90;99.90;;;;;;5020768;28;20712;-71
2023/04/07 03:26:15;;;;;;;11.60;10.20;;;9.80;99.90;;;;;;5025311;28;20183;-70
2023/04/07 03:28:41;;;;;;;11.30;10.10;;;9.60;99.90;;;;;;5023831;28;20206;-68
2023/04/07 03:31:07;;;;;;;11.57;10.23;;;9.60;99.90;;;;;;5018565;28;20206;-68
2023/04/07 03:33:32;;;;;;;14.20;10.80;;;9.60;99.90;;;;;;5028314;28;20584;-67
2023/04/07 03:35:58;;;;;;;12.57;11.07;;;9.50;99.90;;;;;;5021898;28;20196;-69
2023/04/07 03:38:24;;;;;;;12.27;10.60;;;9.50;99.90;;;;;;5038962;28;20248;-68
2023/04/07 03:40:50;;;;;;;12.17;10.40;;;9.50;99.90;;;;;;5039984;28;20320;-69
2023/04/07 03:43:16;;;;;;;11.27;10.07;;;9.40;99.90;;;;;;5039050;28;20490;-68
2023/04/07 03:45:42;;;;;;;11.23;10.03;;;9.40;99.90;;;;;;5031658;28;20272;-68
2023/04/07 03:48:10;;;;;;;11.60;10.43;;;9.40;99.90;;;;;;5039093;28;20291;-69
2023/04/07 03:50:40;;;;;;;12.37;9.73;;;9.50;99.90;;;;;;5038934;28;20661;-68
2023/04/07 03:53:06;;;;;;;11.07;9.93;;;9.50;99.90;;;;;;5039111;28;20422;-67
2023/04/07 03:55:33;;;;;;;11.27;9.10;;;9.50;99.90;;;;;;5035638;28;20499;-69
2023/04/07 03:57:58;;;;;;;11.20;9.80;;;9.60;99.90;;;;;;5032406;28;20896;-68
2023/04/07 04:00:24;;;;;;;10.67;9.53;;;9.60;99.90;;;;;;5031110;28;20658;-67
2023/04/07 04:02:50;;;;;;;10.90;9.80;;;9.70;99.90;;;;;;5009473;28;20265;-67
2023/04/07 04:05:16;;;;;;;12.00;9.60;;;9.80;99.90;;;;;;5016267;28;20942;-66
2023/04/07 04:07:41;;;;;;;10.50;9.40;;;9.80;99.90;;;;;;5033104;28;20213;-68
2023/04/07 04:10:07;;;;;;;12.60;11.30;;;9.60;99.90;;;;;;5038056;28;20178;-68
2023/04/07 04:12:33;;;;;;;9.67;8.67;;;9.50;99.90;;;;;;5025214;28;20279;-69
2023/04/07 04:14:59;;;;;;;11.20;9.63;;;9.50;99.90;;;;;;5026202;28;20545;-69
2023/04/07 04:17:25;;;;;;;13.60;10.10;;;9.60;99.90;;;;;;5020738;28;20231;-69
2023/04/07 04:19:51;;;;;;;11.07;9.90;;;9.60;99.90;;;;;;5031549;28;20193;-68
2023/04/07 04:22:17;;;;;;;11.00;9.90;;;9.60;99.90;;;;;;5028081;28;21149;-69
2023/04/07 04:24:43;;;;;;;14.90;9.93;;;9.60;99.90;;;;;;5010331;28;20668;-68
2023/04/07 04:27:09;;;;;;;11.70;9.73;;;9.60;99.90;;;;;;5028472;28;20407;-67
2023/04/07 04:29:34;;;;;;;10.40;9.30;;;9.50;99.90;;;;;;5008924;28;20505;-69
2023/04/07 04:32:00;;;;;;;12.70;11.13;;;9.60;99.90;;;;;;5008820;28;20206;-68
2023/04/07 04:34:26;;;;;;;12.50;11.20;;;9.60;99.90;;;;;;5009467;28;20186;-70
2023/04/07 04:36:52;;;;;;;10.77;9.67;;;9.50;99.90;;;;;;5008728;28;20213;-68
2023/04/07 04:39:17;;;;;;;10.93;9.73;;;9.50;99.90;;;;;;5022307;28;20475;-69
2023/04/07 04:41:44;;;;;;;10.50;8.80;;;9.50;99.90;;;;;;5030903;28;20653;-69
2023/04/07 04:44:10;;;;;;;11.43;10.27;;;9.50;99.90;;;;;;5025192;28;21000;-68
2023/04/07 04:46:35;;;;;;;11.03;9.10;;;9.40;99.90;;;;;;5008642;28;20797;-68
2023/04/07 04:49:01;;;;;;;10.63;9.50;;;9.40;99.90;;;;;;5007588;28;20257;-68
2023/04/07 04:51:27;;;;;;;11.63;10.50;;;9.30;99.90;;;;;;5025759;28;20183;-69
2023/04/07 04:53:52;;;;;;;12.00;9.93;;;9.20;99.90;;;;;;5010563;28;20663;-68
2023/04/07 04:56:18;;;;;;;11.40;10.10;;;9.20;99.90;;;;;;5041479;28;20190;-68
2023/04/07 04:58:45;;;;;;;12.40;11.10;;;9.20;99.90;;;;;;5028179;28;20199;-67
2023/04/07 05:01:14;;;;;;;11.57;10.33;;;9.10;99.90;;;;;;5041250;28;20190;-68
2023/04/07 05:03:39;;;;;;;13.40;11.27;;;9.00;99.90;;;;;;5027530;28;20997;-68
2023/04/07 05:06:06;;;;;;;12.20;10.70;;;8.90;99.90;;;;;;5031279;28;20418;-68
2023/04/07 05:08:31;;;;;;;12.97;11.57;;;8.90;99.90;;;;;;5034359;28;20210;-68
2023/04/07 05:10:57;;;;;;;14.30;12.00;;;8.90;99.90;;;;;;5028851;28;20429;-68
2023/04/07 05:13:24;;;;;;;11.97;10.33;;;8.90;99.90;;;;;;5020491;28;20612;-66
2023/04/07 05:15:50;;;;;;;13.00;11.27;;;8.90;99.90;;;;;;5020077;28;20661;-68
2023/04/07 05:18:15;;;;;;;12.30;11.10;;;8.80;99.90;;;;;;5007444;28;20441;-67
2023/04/07 05:20:43;;;;;;;12.80;11.50;;;8.90;99.90;;;;;;5010073;28;20189;-68
2023/04/07 05:23:09;;;;;;;11.80;10.60;;;8.80;99.90;;;;;;5024625;28;20221;-68
2023/04/07 05:25:35;;;;;;;11.23;10.00;;;8.70;99.90;;;;;;5010217;28;20782;-69
2023/04/07 05:28:01;;;;;;;13.30;11.90;;;8.80;99.90;;;;;;5010428;28;20729;-68
2023/04/07 05:30:26;;;;;;;13.50;11.30;;;8.80;99.90;;;;;;5010694;28;20412;-67
2023/04/07 05:32:53;;;;;;;16.30;12.60;;;8.80;99.90;;;;;;5032169;28;20614;-69
2023/04/07 05:35:18;;;;;;;12.83;11.50;;;8.80;99.90;;;;;;5010556;28;20182;-68
2023/04/07 05:37:44;;;;;;;13.77;12.27;;;8.90;99.90;;;;;;5040490;28;20804;-68
2023/04/07 05:40:10;;;;;;;13.47;11.83;;;8.80;99.90;;;;;;5037677;28;20272;-69
2023/04/07 05:42:35;;;;;;;12.83;11.47;;;8.80;99.90;;;;;;5032393;28;20233;-65
2023/04/07 05:45:02;;;;;;;11.80;10.53;;;8.80;99.90;;;;;;5035521;28;20883;-68
2023/04/07 05:47:28;;;;;;;12.97;10.93;;;8.90;99.90;;;;;;5035406;28;20227;-68
2023/04/07 05:49:53;;;;;;;11.83;10.60;;;9.00;99.90;;;;;;5018724;28;20456;-67
2023/04/07 05:52:19;;;;;;;12.00;10.33;;;9.00;99.90;;;;;;5020758;28;20609;-67
2023/04/07 05:54:45;;;;;;;11.17;10.00;;;9.10;99.90;;;;;;5010002;28;20179;-68
2023/04/07 05:57:10;;;;;;;13.10;10.83;;;9.20;99.90;;;;;;5031647;28;20654;-68
2023/04/07 05:59:36;;;;;;;11.23;10.17;;;9.30;99.90;;;;;;5014669;28;20529;-67
2023/04/07 06:02:02;;;;;;;11.77;10.57;;;9.40;99.90;;;;;;5036164;28;20680;-69
2023/04/07 06:04:28;;;;;;;12.83;11.33;;;9.50;99.90;;;;;;5023205;28;20634;-68
2023/04/07 06:06:54;;;;;;;13.53;12.10;;;9.60;99.90;;;;;;5007422;28;20520;-69
2023/04/07 06:09:21;;;;;;;12.20;11.00;;;9.60;99.90;;;;;;5007480;28;20241;-69
2023/04/07 06:11:46;;;;;;;13.37;10.60;;;9.60;99.90;;;;;;5025117;28;20188;-68
2023/04/07 06:14:12;;;;;;;12.50;11.23;;;9.50;99.90;;;;;;5006845;28;20433;-67
2023/04/07 06:16:38;;;;;;;15.30;12.50;;;9.60;99.90;;;;;;5040224;28;20263;-68
2023/04/07 06:19:06;;;;;;;12.63;11.33;;;9.60;99.90;;;;;;5023974;28;20506;-68
2023/04/07 06:21:31;;;;;;;10.43;9.00;;;9.60;99.90;;;;;;5039534;28;20192;-68
2023/04/07 06:23:57;;;;;;;14.27;10.70;;;9.60;99.90;;;;;;5029505;28;20471;-68
2023/04/07 06:26:23;;;;;;;11.37;10.27;;;9.60;99.90;;;;;;5014055;28;20867;-67
2023/04/07 06:28:48;;;;;;;14.80;10.80;;;9.80;99.90;;;;;;5036364;28;20206;-70
2023/04/07 06:31:15;;;;;;;12.20;10.77;;;9.80;99.90;;;;;;5006525;28;20232;-68
2023/04/07 06:33:41;;;;;;;12.50;10.00;;;9.90;99.90;;;;;;5028346;28;20197;-68
2023/04/07 06:36:06;;;;;;;11.03;9.93;;;10.00;99.90;;;;;;5006522;28;20971;-68
2023/04/07 06:38:32;;;;;;;11.87;10.60;;;10.10;99.90;;;;;;5017387;28;20586;-68
2023/04/07 06:40:57;;;;;;;11.73;10.50;;;10.00;99.90;;;;;;5006017;28;20667;-69
2023/04/07 06:43:23;;;;;;;11.70;10.60;;;10.20;99.90;;;;;;5042214;23;20202;-71
2023/04/07 06:45:49;;;;;;;11.83;10.63;;;10.20;99.90;;;;;;5042281;28;20179;-69
2023/04/07 06:48:15;;;;;;;12.10;10.43;;;10.30;99.90;;;;;;5041913;28;20193;-72
2023/04/07 06:50:40;;;;;;;12.43;11.20;;;10.40;99.90;;;;;;5026171;28;20203;-69
2023/04/07 06:53:06;;;;;;;11.87;10.40;;;10.50;99.90;;;;;;5044084;28;20185;-70
2023/04/07 06:55:31;;;;;;;14.40;11.80;;;10.60;99.90;;;;;;5025265;28;20624;-69
2023/04/07 06:57:57;;;;;;;13.33;11.97;;;10.60;99.90;;;;;;5024461;28;20658;-69
2023/04/07 07:00:23;;;;;;;12.80;11.50;;;10.60;99.90;;;;;;5006498;28;20179;-70
2023/04/07 07:02:49;;;;;;;13.20;11.90;;;10.70;99.90;;;;;;5021856;28;20241;-70
2023/04/07 07:05:15;;;;;;;13.27;11.87;;;10.60;99.90;;;;;;5022698;28;20203;-69
2023/04/07 07:07:40;;;;;;;11.23;10.13;;;10.60;99.90;;;;;;5022555;28;20427;-70
2023/04/07 07:10:09;;;;;;;11.63;10.47;;;10.70;99.90;;;;;;5023253;28;20183;-71
2023/04/07 07:12:35;;;;;;;13.43;11.47;;;10.90;99.90;;;;;;5024078;28;20179;-72
2023/04/07 07:15:00;;;;;;;12.20;10.83;;;10.90;99.90;;;;;;5022893;28;20832;-67
2023/04/07 07:17:26;;;;;;;12.43;11.23;;;10.90;99.90;;;;;;5024040;28;20210;-68
2023/04/07 07:19:52;;;;;;;11.70;10.50;;;10.90;99.90;;;;;;5024361;28;20182;-71
2023/04/07 07:22:17;;;;;;;12.53;10.40;;;10.80;99.90;;;;;;5032696;28;20178;-71
2023/04/07 07:24:43;;;;;;;11.70;10.53;;;10.80;99.90;;;;;;5037890;28;20212;-70
2023/04/07 07:27:09;;;;;;;11.57;10.03;;;10.90;99.90;;;;;;5026900;28;20701;-68
2023/04/07 07:29:34;;;;;;;10.03;8.90;;;11.00;99.90;;;;;;5044013;28;20185;-68
2023/04/07 07:32:00;;;;;;;11.10;8.97;;;11.10;99.90;;;;;;5024052;28;20180;-69
2023/04/07 07:34:26;;;;;;;13.40;10.23;;;11.10;99.90;;;;;;5023963;28;20210;-70
2023/04/07 07:36:51;;;;;;;11.20;10.10;;;11.20;99.90;;;;;;5022837;28;20183;-69
2023/04/07 07:39:17;;;;;;;19.10;17.50;;;11.30;99.90;;;;;;5023208;28;20226;-70
2023/04/07 07:41:42;;;;;;;15.03;13.80;;;11.30;99.90;;;;;;5034930;28;20556;-69
2023/04/07 07:44:08;;;;;;;11.17;10.17;;;11.40;99.90;;;;;;5046123;28;20221;-70
2023/04/07 07:46:34;;;;;;;12.57;11.37;;;11.20;99.90;;;;;;5055092;28;20166;-71
2023/04/07 07:48:59;;;;;;;10.20;9.00;;;11.20;99.90;;;;;;5036777;28;20189;-71
2023/04/07 07:51:26;;;;;;;11.70;10.50;;;11.30;99.90;;;;;;5019635;28;20175;-72
2023/04/07 07:53:52;;;;;;;15.20;13.80;;;11.00;99.90;;;;;;5035477;28;20203;-68
2023/04/07 07:56:18;;;;;;;13.03;11.43;;;11.20;99.90;;;;;;5035829;28;20434;-70
2023/04/07 07:58:43;;;;;;;10.83;9.80;;;11.30;99.90;;;;;;5036628;28;20190;-71
2023/04/07 08:01:09;;;;;;;12.60;10.50;;;11.40;99.90;;;;;;5024378;28;20210;-70
2023/04/07 08:03:35;;;;;;;10.37;8.67;;;11.60;99.90;;;;;;5034403;28;20505;-69
2023/04/07 08:06:00;;;;;;;10.83;9.73;;;11.50;99.90;;;;;;5020942;28;20193;-71
2023/04/07 08:08:26;;;;;;;12.13;9.20;;;11.50;99.90;;;;;;5023962;28;20171;-70
2023/04/07 08:10:51;;;;;;;12.57;11.37;;;11.60;99.90;;;;;;5010436;28;20179;-70
2023/04/07 08:13:17;;;;;;;12.00;10.90;;;11.50;99.90;;;;;;5027074;28;20179;-70
2023/04/07 08:15:42;;;;;;;10.80;9.70;;;11.20;99.90;;;;;;5027216;28;20246;-72
2023/04/07 08:18:08;;;;;;;11.03;9.87;;;11.30;99.90;;;;;;5009507;28;20180;-69
2023/04/07 08:20:35;;;;;;;10.90;9.80;;;11.20;99.90;;;;;;5027374;28;20190;-68
2023/04/07 08:23:01;;;;;;;12.47;9.80;;;11.10;99.90;;;;;;5035477;28;20218;-70
2023/04/07 08:25:27;;;;;;;10.57;9.57;;;11.30;99.90;;;;;;5028305;28;20456;-71
2023/04/07 08:27:53;;;;;;;11.00;9.93;;;11.40;99.90;;;;;;5046481;28;20511;-69
2023/04/07 08:30:20;;;;;;;9.03;7.40;;;11.30;99.90;;;;;;5028232;28;20511;-69
2023/04/07 08:32:45;;;;;;;10.27;9.17;;;11.30;99.90;;;;;;5013357;28;20200;-69
2023/04/07 08:35:11;;;;;;;10.83;9.80;;;11.30;99.90;;;;;;5008641;28;20445;-68
2023/04/07 08:37:38;;;;;;;9.57;8.67;;;11.50;99.90;;;;;;5026327;28;20181;-70
2023/04/07 08:40:04;;;;;;;9.17;8.07;;;11.70;99.90;;;;;;5008620;28;20188;-69
2023/04/07 08:42:33;;;;;;;9.93;9.03;;;11.90;99.90;;;;;;5008132;28;20426;-69
2023/04/07 08:45:04;;;;;;;8.33;7.53;;;12.00;99.90;;;;;;5008087;28;20675;-71
2023/04/07 08:47:32;;;;;;;8.33;7.50;;;11.90;99.90;;;;;;5008283;28;20464;-69
2023/04/07 08:50:01;;;;;;;8.37;7.57;;;12.00;99.90;;;;;;5007960;28;20426;-69
2023/04/07 08:52:38;;;;;;;8.87;8.00;;;12.20;99.90;;;;;;4992295;28;20483;-69
2023/04/07 08:55:05;;;;;;;8.40;7.57;;;12.30;99.90;;;;;;5008298;28;20454;-69
2023/04/07 08:57:32;;;;;;;8.37;7.67;;;12.40;99.90;;;;;;5026080;28;20410;-70
2023/04/07 09:00:07;;;;;;;9.20;8.30;;;12.60;99.90;;;;;;5008021;28;20420;-69
2023/04/07 09:02:35;;;;;;;9.97;8.43;;;12.60;99.90;;;;;;5007425;28;20417;-69
2023/04/07 09:05:06;;;;;;;9.37;7.77;;;12.50;99.90;;;;;;5022518;28;20435;-70
2023/04/07 09:07:36;;;;;;;8.73;7.47;;;12.70;99.90;;;;;;5008010;28;20419;-69
2023/04/07 09:10:02;;;;;;;10.60;7.40;;;12.80;99.90;;;;;;5008400;28;20434;-71
2023/04/07 09:12:29;;;;;;;8.67;7.70;;;12.80;99.90;;;;;;5007745;28;20426;-69
2023/04/07 09:14:55;;;;;;;10.50;9.27;;;12.90;99.90;;;;;;5007657;28;20458;-69
2023/04/07 09:17:21;;;;;;;7.93;7.13;;;13.00;99.90;;;;;;5007498;28;20427;-69
2023/04/07 09:19:47;;;;;;;9.67;7.87;;;13.40;99.90;;;;;;5007425;28;20601;-72
2023/04/07 09:22:13;;;;;;;10.00;7.97;;;13.20;99.90;;;;;;5007933;28;21008;-72
2023/04/07 09:24:41;;;;;;;8.03;7.30;;;13.30;99.90;;;;;;5008967;28;20465;-68
2023/04/07 09:27:14;;;;;;;8.53;7.73;;;13.10;99.90;;;;;;5027352;28;20421;-72
2023/04/07 09:29:42;;;;;;;8.20;7.40;;;13.00;99.90;;;;;;5043710;28;20812;-70
2023/04/07 09:32:08;;;;;;;8.07;7.27;;;12.60;99.90;;;;;;5012660;28;20426;-70
2023/04/07 09:34:40;;;;;;;8.50;7.60;;;12.50;99.90;;;;;;5027133;28;20447;-70
2023/04/07 09:37:08;;;;;;;7.83;7.03;;;12.40;99.90;;;;;;5009998;28;20953;-70
2023/04/07 09:39:50;;;;;;;7.43;6.47;;;12.60;99.90;;;;;;5010075;28;20944;-69
2023/04/07 09:42:16;;;;;;;10.67;7.77;;;12.80;99.90;;;;;;5027598;28;20440;-71
2023/04/07 09:44:43;;;;;;;14.23;12.83;;;12.90;99.90;;;;;;4991997;28;20485;-70
2023/04/07 09:47:10;;;;;;;6.63;6.03;;;13.30;99.90;;;;;;5034653;28;20190;-71
2023/04/07 09:49:52;;;;;;;9.20;6.80;;;13.80;99.90;;;;;;5027170;28;20417;-68
2023/04/07 09:52:19;;;;;;;7.37;6.67;;;14.70;99.90;;;;;;5025076;28;20412;-69
2023/04/07 09:54:45;;;;;;;9.13;7.23;;;15.00;99.90;;;;;;5007017;28;20801;-69
2023/04/07 09:57:12;;;;;;;8.90;8.00;;;14.40;99.90;;;;;;5024750;28;21047;-68
2023/04/07 09:59:41;;;;;;;7.20;6.50;;;14.20;99.90;;;;;;5025260;28;20429;-70
2023/04/07 10:02:07;;;;;;;8.23;6.67;;;14.20;99.90;;;;;;5007055;28;20424;-71
2023/04/07 10:04:33;;;;;;;8.67;7.30;;;14.00;99.90;;;;;;5014114;28;20467;-69
2023/04/07 10:06:59;;;;;;;6.60;6.00;;;13.80;99.90;;;;;;5025148;28;20421;-70
2023/04/07 10:09:29;;;;;;;7.70;6.73;;;14.00;99.90;;;;;;5006907;28;20189;-69
2023/04/07 10:11:56;;;;;;;7.50;6.73;;;13.90;99.90;;;;;;5024928;28;20465;-69
2023/04/07 10:14:26;;;;;;;7.60;6.90;;;13.90;99.90;;;;;;5006569;28;20441;-69
2023/04/07 10:16:52;;;;;;;7.60;6.70;;;13.50;99.90;;;;;;5026795;28;20427;-71
2023/04/07 10:19:18;;;;;;;7.80;7.00;;;13.30;99.90;;;;;;5044207;28;20430;-69
2023/04/07 10:21:44;;;;;;;10.07;7.80;;;13.10;99.90;;;;;;5026483;28;20410;-69
2023/04/07 10:24:21;;;;;;;7.77;6.90;;;13.10;99.90;;;;;;5009662;28;21058;-69
2023/04/07 10:26:53;;;;;;;7.77;6.97;;;13.50;99.90;;;;;;5035776;28;20193;-68
2023/04/07 10:29:20;;;;;;;8.50;7.00;;;13.40;99.90;;;;;;5006799;28;20453;-71
2023/04/07 10:31:46;;;;;;;8.40;7.67;;;13.50;99.90;;;;;;5006471;28;20818;-69
2023/04/07 10:34:12;;;;;;;8.00;7.27;;;13.20;99.90;;;;;;5023676;28;21015;-72
2023/04/07 10:37:13;;;;;;;9.33;7.63;;;13.50;99.90;;;;;;5024073;28;20418;-69
2023/04/07 10:39:39;;;;;;;8.53;7.20;;;13.70;99.90;;;;;;5006443;28;20195;-69
2023/04/07 10:42:05;;;;;;;7.90;6.63;;;13.80;99.90;;;;;;5006052;28;20511;-70
2023/04/07 10:44:40;;;;;;;11.63;8.30;;;13.90;99.90;;;;;;5005679;28;20551;-70
2023/04/07 10:47:06;;;;;;;9.97;9.03;;;14.10;99.90;;;;;;5006052;28;21007;-70
2023/04/07 10:49:33;;;;;;;8.67;7.77;;;14.10;99.90;;;;;;5023459;28;20519;-69
2023/04/07 10:52:11;;;;;;;8.07;7.23;;;13.90;99.90;;;;;;5006041;28;20188;-69
2023/04/07 10:54:40;;;;;;;7.40;6.70;;;14.20;99.90;;;;;;5023720;28;20563;-69
2023/04/07 10:57:13;;;;;;;6.90;6.30;;;13.80;99.90;;;;;;5005736;28;20447;-69
2023/04/07 11:00:00;;;;;;;6.67;5.93;;;14.00;99.90;;;;;;5006024;28;20432;-69
2023/04/07 11:02:26;;;;;;;7.27;6.33;;;14.10;99.90;;;;;;4984559;28;20423;-72
2023/04/07 11:04:54;;;;;;;8.27;6.97;;;14.10;99.90;;;;;;5005282;28;20535;-70
2023/04/07 11:07:44;;;;;;;8.60;6.97;;;14.00;99.90;;;;;;5005411;28;21443;-69
2023/04/07 11:10:14;;;;;;;7.27;6.57;;;14.30;99.90;;;;;;5021166;28;20184;-68
2023/04/07 11:12:40;;;;;;;7.10;6.30;;;14.10;99.90;;;;;;5004794;28;20430;-69
2023/04/07 11:15:20;;;;;;;8.23;6.80;;;14.40;99.90;;;;;;5005246;28;20449;-69
2023/04/07 11:18:04;;;;;;;6.50;5.90;;;15.60;99.90;;;;;;5023154;28;20190;-68
2023/04/07 11:20:45;;;;;;;6.80;5.97;;;16.50;99.80;;;;;;5005662;28;20560;-71
2023/04/07 11:23:11;;;;;;;7.83;6.37;;;15.40;99.90;;;;;;5005181;28;20819;-69
2023/04/07 11:25:37;;;;;;;6.80;6.10;;;15.50;99.90;;;;;;5004341;28;20949;-70
2023/04/07 11:28:04;;;;;;;6.73;6.00;;;14.80;99.90;;;;;;5004339;28;20428;-69
2023/04/07 11:30:29;;;;;;;8.93;6.03;;;14.70;99.90;;;;;;5005147;28;20189;-71
2023/04/07 11:32:56;;;;;;;8.23;5.63;;;14.80;99.90;;;;;;5005197;28;20429;-72
2023/04/07 11:35:22;;;;;;;7.43;5.33;;;14.80;99.90;;;;;;5005151;28;20700;-70
2023/04/07 11:37:48;;;;;;;17.47;13.27;;;14.30;99.90;;;;;;5005436;28;21025;-69
2023/04/07 11:40:34;;;;;;;9.20;6.40;;;14.40;99.90;;;;;;5021283;28;20550;-69
2023/04/07 11:43:01;;;;;;;10.03;6.10;;;13.80;99.90;;;;;;5041482;28;20205;-69
2023/04/07 11:45:27;;;;;;;7.30;6.50;;;13.90;99.90;;;;;;4990232;28;20973;-71
2023/04/07 11:47:52;;;;;;;6.70;6.00;;;13.70;99.90;;;;;;5039680;28;20557;-69
2023/04/07 11:50:40;;;;;;;8.13;7.33;;;13.60;99.90;;;;;;5024716;28;20445;-69
2023/04/07 11:53:06;;;;;;;8.03;7.23;;;13.60;99.90;;;;;;5023494;28;20190;-69
2023/04/07 11:55:31;;;;;;;7.53;6.73;;;13.70;99.90;;;;;;5005313;28;20484;-70
2023/04/07 11:58:05;;;;;;;9.97;7.07;;;13.90;99.90;;;;;;5005030;28;20209;-70
2023/04/07 12:00:31;;;;;;;7.47;6.60;;;14.00;99.90;;;;;;5005086;28;20185;-72
2023/04/07 12:03:07;;;;;;;10.67;6.97;;;13.50;99.90;;;;;;5005128;28;20466;-71
2023/04/07 12:05:45;;;;;;;7.80;7.03;;;13.40;99.90;;;;;;5033965;28;20218;-70
2023/04/07 12:08:12;;;;;;;7.77;7.07;;;13.30;99.90;;;;;;5005000;28;20837;-70
2023/04/07 12:10:40;;;;;;;11.70;8.70;;;13.10;99.90;;;;;;5004159;28;20423;-70
2023/04/07 12:13:07;;;;;;;11.20;8.10;;;13.10;99.90;;;;;;5005395;28;20797;-69
2023/04/07 12:15:33;;;;;;;9.83;8.83;;;12.80;99.90;;;;;;5022884;28;20425;-70
2023/04/07 12:17:59;;;;;;;9.67;8.70;;;12.30;99.90;;;;;;5004549;28;20428;-69
2023/04/07 12:20:26;;;;;;;11.97;8.57;;;11.90;99.90;;;;;;5005113;28;20191;-70
2023/04/07 12:22:51;;;;;;;8.43;7.33;;;11.70;99.90;;;;;;5022696;28;20583;-70
2023/04/07 12:25:17;;;;;;;8.03;7.23;;;11.70;99.90;;;;;;5004620;28;20453;-71
2023/04/07 12:27:43;;;;;;;8.43;6.90;;;11.80;99.90;;;;;;5005665;28;20195;-70
2023/04/07 12:30:08;;;;;;;7.27;6.53;;;12.10;99.90;;;;;;5026269;28;20650;-71
2023/04/07 12:32:34;;;;;;;7.93;7.00;;;12.20;99.90;;;;;;5023619;28;20182;-71
2023/04/07 12:35:00;;;;;;;7.23;5.93;;;12.30;99.90;;;;;;5004776;28;20471;-71
2023/04/07 12:37:26;;;;;;;7.60;6.90;;;12.30;99.90;;;;;;5004998;28;20180;-71
2023/04/07 12:39:51;;;;;;;7.50;6.30;;;12.70;99.90;;;;;;5028449;28;20274;-70
2023/04/07 12:42:17;;;;;;;7.83;5.13;;;12.50;99.90;;;;;;5016296;28;20424;-71
2023/04/07 12:44:42;;;;;;;6.03;5.43;;;12.50;99.90;;;;;;5036068;23;20319;-68